KPAH/PAH METAR and TAF weather

Enter ICAO airport designator
Station Type Date Time Source
KPAH METAR 2021/04/14 19:53 UTC NOAA

KPAH 141953Z 10003KT 10SM OVC070 17/06 A3008 RMK AO2 SLP186 T01670056


Station Type Date Time Source
KPAH Decoded METAR 2021/04/14 19:53 UTC NOAA

BARKLEY REGIONAL AIRPORT, KY, United States (KPAH) 37-03N 088-46W 118M
Apr 14, 2021 - 03:53 PM EDT / 2021.04.14 1953 UTC
Wind: from the E (100 degrees) at 3 MPH (3 KT):0
Visibility: 10 mile(s):0
Sky conditions: overcast
Temperature: 62.1 F (16.7 C)
Dew Point: 42.1 F (5.6 C)
Relative Humidity: 47%
Pressure (altimeter): 30.08 in. Hg (1018 hPa)
ob: KPAH 141953Z 10003KT 10SM OVC070 17/06 A3008 RMK AO2 SLP186 T01670056
cycle: 20

Station Type Date Time Source
KPAH TAF 2021/04/14 18:22 UTC NOAA

TAF KPAH 141720Z 1418/1518 03005KT P6SM BKN050
FM142000 36007KT P6SM SCT050
FM150000 34005KT P6SM SCT250
FM151500 35009KT P6SM SCT060

Example: see airport list